createdAt,value
2022-12-26T00:00:41.026Z,100.00
2022-12-26T00:01:43.715Z,100.00
2022-12-26T00:02:46.603Z,100.00
2022-12-26T00:03:49.671Z,100.00
2022-12-26T00:04:53.820Z,100.00
2022-12-26T00:05:56.757Z,100.00
2022-12-26T00:06:59.413Z,100.00
2022-12-26T00:08:02.189Z,100.00
2022-12-26T00:09:05.058Z,100.00
2022-12-26T00:10:08.032Z,100.00
2022-12-26T00:11:11.120Z,100.00
2022-12-26T00:12:21.982Z,100.00
2022-12-26T00:13:39.160Z,100.00
2022-12-26T00:14:29.283Z,100.00
2022-12-26T00:15:32.240Z,100.00
2022-12-26T00:16:35.224Z,100.00
2022-12-26T00:17:37.896Z,100.00
2022-12-26T00:18:40.765Z,100.00
2022-12-26T00:19:43.638Z,100.00
2022-12-26T00:20:46.410Z,100.00
2022-12-26T00:21:49.077Z,100.00
2022-12-26T00:22:51.846Z,100.00
2022-12-26T00:23:56.153Z,100.00
2022-12-26T00:24:59.031Z,100.00
2022-12-26T00:26:02.007Z,100.00
2022-12-26T00:27:05.088Z,100.00
2022-12-26T00:28:07.857Z,100.00
2022-12-26T00:29:10.631Z,100.00
2022-12-26T00:30:13.623Z,100.00
2022-12-26T00:31:16.726Z,100.00
2022-12-26T00:32:19.874Z,100.00
2022-12-26T00:33:22.538Z,100.00
2022-12-26T00:34:25.316Z,100.00
2022-12-26T00:35:28.298Z,100.00
2022-12-26T00:36:31.072Z,100.00
2022-12-26T00:37:33.834Z,100.00
2022-12-26T00:38:36.818Z,100.00
2022-12-26T00:39:39.787Z,100.00
2022-12-26T00:40:42.561Z,100.00
2022-12-26T00:41:45.435Z,100.00
2022-12-26T00:42:48.213Z,100.00
2022-12-26T00:43:50.874Z,100.00
2022-12-26T00:44:53.548Z,100.00
2022-12-26T00:45:56.641Z,100.00
2022-12-26T00:46:59.811Z,100.00
2022-12-26T00:48:02.584Z,100.00
2022-12-26T00:49:05.353Z,100.00
2022-12-26T00:50:12.487Z,100.00
2022-12-26T00:51:12.641Z,100.00
2022-12-26T00:52:15.616Z,100.00
2022-12-26T00:53:21.659Z,100.00
2022-12-26T00:54:24.338Z,100.00
2022-12-26T00:55:27.002Z,100.00
2022-12-26T00:56:30.090Z,100.00
2022-12-26T00:57:32.751Z,100.00
2022-12-26T00:58:35.569Z,100.00
2022-12-26T00:59:38.199Z,100.00
2022-12-26T01:00:41.132Z,100.00
2022-12-26T01:01:44.029Z,100.00
2022-12-26T01:02:47.127Z,100.00
2022-12-26T01:03:50.107Z,100.00
2022-12-26T01:04:52.976Z,100.00
2022-12-26T01:05:55.751Z,100.00
2022-12-26T01:06:58.532Z,100.00
2022-12-26T01:08:22.122Z,100.00
2022-12-26T01:09:05.813Z,100.00
2022-12-26T01:10:08.578Z,100.00
2022-12-26T01:11:11.460Z,100.00
2022-12-26T01:12:14.233Z,100.00
2022-12-26T01:13:16.944Z,100.00
2022-12-26T01:14:19.977Z,100.00
2022-12-26T01:15:22.682Z,100.00
2022-12-26T01:16:25.459Z,100.00
2022-12-26T01:17:28.422Z,100.00
2022-12-26T01:18:31.281Z,100.00
2022-12-26T01:19:33.957Z,100.00
2022-12-26T01:20:36.606Z,100.00
2022-12-26T01:21:39.388Z,100.00
2022-12-26T01:22:42.155Z,100.00
2022-12-26T01:23:45.027Z,100.00
2022-12-26T01:24:47.699Z,100.00
2022-12-26T01:26:17.097Z,100.00
2022-12-26T01:26:54.782Z,100.00
2022-12-26T01:27:57.448Z,100.00
2022-12-26T01:29:00.222Z,100.00
2022-12-26T01:30:02.937Z,100.00
2022-12-26T01:31:06.174Z,100.00
2022-12-26T01:32:09.238Z,100.00
2022-12-26T01:33:12.344Z,100.00
2022-12-26T01:34:15.006Z,100.00
2022-12-26T01:35:17.876Z,100.00
2022-12-26T01:36:20.650Z,100.00
2022-12-26T01:37:23.764Z,100.00
2022-12-26T01:38:26.602Z,100.00
2022-12-26T01:39:29.477Z,100.00
2022-12-26T01:40:32.253Z,100.00
2022-12-26T01:41:35.431Z,100.00
2022-12-26T01:42:38.340Z,100.00
2022-12-26T01:43:41.085Z,100.00
2022-12-26T01:44:43.849Z,100.00
2022-12-26T01:45:46.710Z,100.00
2022-12-26T01:46:49.397Z,100.00
2022-12-26T01:47:52.171Z,100.00
2022-12-26T01:48:54.851Z,100.00
2022-12-26T01:49:57.410Z,100.00
2022-12-26T01:51:00.178Z,100.00
2022-12-26T01:52:03.253Z,100.00
2022-12-26T01:53:06.237Z,100.00
2022-12-26T01:54:39.529Z,100.00
2022-12-26T01:55:13.527Z,100.00
2022-12-26T01:56:16.094Z,100.00
2022-12-26T01:57:19.272Z,100.00
2022-12-26T01:58:22.022Z,100.00
2022-12-26T01:59:24.930Z,100.00
2022-12-26T02:00:31.044Z,100.00
2022-12-26T02:01:33.877Z,100.00
2022-12-26T02:02:36.996Z,100.00
2022-12-26T02:03:39.997Z,100.00
2022-12-26T02:04:42.873Z,100.00
2022-12-26T02:05:45.887Z,100.00
2022-12-26T02:06:48.831Z,100.00
2022-12-26T02:07:51.600Z,100.00
2022-12-26T02:08:54.475Z,100.00
2022-12-26T02:09:57.258Z,100.00
2022-12-26T02:11:00.128Z,100.00
2022-12-26T02:12:37.560Z,100.00
2022-12-26T02:13:07.114Z,100.00
2022-12-26T02:14:09.772Z,100.00
2022-12-26T02:15:12.839Z,100.00
2022-12-26T02:16:15.742Z,100.00
2022-12-26T02:17:18.598Z,100.00
2022-12-26T02:18:21.792Z,100.00
2022-12-26T02:19:24.675Z,100.00
2022-12-26T02:20:27.642Z,100.00
2022-12-26T02:21:30.622Z,100.00
2022-12-26T02:22:33.583Z,100.00
2022-12-26T02:23:36.669Z,100.00
2022-12-26T02:24:39.652Z,100.00
2022-12-26T02:25:42.413Z,100.00
2022-12-26T02:26:45.286Z,100.00
2022-12-26T02:27:48.381Z,100.00
2022-12-26T02:28:51.240Z,100.00
2022-12-26T02:29:54.120Z,100.00
2022-12-26T02:30:56.997Z,100.00
2022-12-26T02:31:59.934Z,100.00
2022-12-26T02:33:02.847Z,100.00
2022-12-26T02:34:05.516Z,100.00
2022-12-26T02:35:08.282Z,100.00
2022-12-26T02:36:10.955Z,100.00
2022-12-26T02:37:13.738Z,100.00
2022-12-26T02:38:16.407Z,100.00
2022-12-26T02:39:45.664Z,100.00
2022-12-26T02:40:23.696Z,100.00
2022-12-26T02:41:26.451Z,100.00
2022-12-26T02:42:29.553Z,100.00
2022-12-26T02:43:32.516Z,100.00
2022-12-26T02:44:35.607Z,100.00
2022-12-26T02:45:38.524Z,100.00
2022-12-26T02:46:41.344Z,100.00
2022-12-26T02:47:44.424Z,100.00
2022-12-26T02:48:47.306Z,100.00
2022-12-26T02:49:50.403Z,100.00
2022-12-26T02:50:53.556Z,100.00
2022-12-26T02:51:56.636Z,100.00
2022-12-26T02:52:59.511Z,100.00
2022-12-26T02:54:02.589Z,100.00
2022-12-26T02:55:05.630Z,100.00
2022-12-26T02:56:08.772Z,100.00
2022-12-26T02:57:11.723Z,100.00
2022-12-26T02:58:14.915Z,100.00
2022-12-26T02:59:17.889Z,100.00
2022-12-26T03:00:20.856Z,100.00
2022-12-26T03:01:23.948Z,100.00
2022-12-26T03:02:27.278Z,100.00
2022-12-26T03:03:30.517Z,100.00
2022-12-26T03:04:33.695Z,100.00
2022-12-26T03:05:36.779Z,100.00
2022-12-26T03:06:39.644Z,100.00
2022-12-26T03:07:46.032Z,100.00
2022-12-26T03:08:49.299Z,100.00
2022-12-26T03:09:52.477Z,100.00
2022-12-26T03:10:55.655Z,100.00
2022-12-26T03:11:58.840Z,100.00
2022-12-26T03:13:02.074Z,100.00
2022-12-26T03:14:04.908Z,100.00
2022-12-26T03:15:07.869Z,100.00
2022-12-26T03:16:10.754Z,100.00
2022-12-26T03:17:13.533Z,100.00
2022-12-26T03:18:16.287Z,100.00
2022-12-26T03:19:18.980Z,100.00
2022-12-26T03:20:21.638Z,100.00
2022-12-26T03:21:24.296Z,100.00
2022-12-26T03:22:26.863Z,100.00
2022-12-26T03:23:29.658Z,100.00
2022-12-26T03:24:32.305Z,100.00
2022-12-26T03:25:35.092Z,100.00
2022-12-26T03:26:37.861Z,100.00
2022-12-26T03:27:40.516Z,100.00
2022-12-26T03:28:43.197Z,100.00
2022-12-26T03:29:46.068Z,100.00
2022-12-26T03:30:48.880Z,100.00
2022-12-26T03:31:52.019Z,100.00
2022-12-26T03:32:55.116Z,100.00
2022-12-26T03:33:57.975Z,100.00
2022-12-26T03:35:01.282Z,100.00
2022-12-26T03:36:04.240Z,100.00
2022-12-26T03:37:07.318Z,100.00
2022-12-26T03:38:10.307Z,100.00
2022-12-26T03:39:13.095Z,100.00
2022-12-26T03:40:16.150Z,100.00
2022-12-26T03:41:19.017Z,100.00
2022-12-26T03:42:22.099Z,100.00
2022-12-26T03:43:25.081Z,100.00
2022-12-26T03:44:28.054Z,100.00
2022-12-26T03:45:30.928Z,100.00
2022-12-26T03:46:33.858Z,100.00
2022-12-26T03:47:37.298Z,100.00
2022-12-26T03:48:40.499Z,100.00
2022-12-26T03:49:44.388Z,100.00
2022-12-26T03:50:47.376Z,100.00
2022-12-26T03:51:50.453Z,100.00
2022-12-26T03:52:53.523Z,100.00
2022-12-26T03:53:56.420Z,100.00
2022-12-26T03:54:59.206Z,100.00
2022-12-26T03:56:02.151Z,100.00
2022-12-26T03:57:04.901Z,100.00
2022-12-26T03:58:07.807Z,100.00
2022-12-26T03:59:10.461Z,100.00
2022-12-26T04:00:13.223Z,100.00
2022-12-26T04:01:16.354Z,100.00
2022-12-26T04:02:19.533Z,100.00
2022-12-26T04:03:22.720Z,100.00
2022-12-26T04:04:25.535Z,100.00
2022-12-26T04:05:28.324Z,100.00
2022-12-26T04:06:31.285Z,100.00
2022-12-26T04:07:34.411Z,100.00
2022-12-26T04:08:37.260Z,100.00
2022-12-26T04:09:40.229Z,100.00
2022-12-26T04:10:43.201Z,100.00
2022-12-26T04:11:45.977Z,100.00
2022-12-26T04:12:48.865Z,100.00
2022-12-26T04:13:52.077Z,100.00
2022-12-26T04:15:01.050Z,100.00
2022-12-26T04:16:04.075Z,100.00
2022-12-26T04:17:06.896Z,100.00
2022-12-26T04:18:09.800Z,100.00
2022-12-26T04:19:13.159Z,100.00
2022-12-26T04:20:16.131Z,100.00
2022-12-26T04:21:18.931Z,100.00
2022-12-26T04:22:21.799Z,100.00
2022-12-26T04:23:24.455Z,100.00
2022-12-26T04:24:27.327Z,100.00
2022-12-26T04:25:50.909Z,100.00
2022-12-26T04:26:34.936Z,100.00
2022-12-26T04:27:37.588Z,100.00
2022-12-26T04:28:40.475Z,100.00
2022-12-26T04:29:43.744Z,100.00
2022-12-26T04:30:46.747Z,100.00
2022-12-26T04:31:49.522Z,100.00
2022-12-26T04:32:52.282Z,100.00
2022-12-26T04:33:55.047Z,100.00
2022-12-26T04:34:57.937Z,100.00
2022-12-26T04:36:00.578Z,100.00
2022-12-26T04:37:03.250Z,100.00
2022-12-26T04:38:05.914Z,100.00
2022-12-26T04:39:08.807Z,100.00
2022-12-26T04:40:11.981Z,100.00
2022-12-26T04:41:14.953Z,100.00
2022-12-26T04:42:17.832Z,100.00
2022-12-26T04:43:48.112Z,100.00
2022-12-26T04:44:25.308Z,100.00
2022-12-26T04:45:28.308Z,100.00
2022-12-26T04:46:31.167Z,100.00
2022-12-26T04:47:33.844Z,100.00
2022-12-26T04:48:36.615Z,100.00
2022-12-26T04:49:39.823Z,100.00
2022-12-26T04:50:43.375Z,100.00
2022-12-26T04:51:46.572Z,100.00
2022-12-26T04:52:49.535Z,100.00
2022-12-26T04:53:52.223Z,100.00
2022-12-26T04:54:55.102Z,100.00
2022-12-26T04:55:58.078Z,100.00
2022-12-26T04:57:01.034Z,100.00
2022-12-26T04:58:03.820Z,100.00
2022-12-26T04:59:06.684Z,100.00
2022-12-26T05:00:09.566Z,100.00
2022-12-26T05:01:13.692Z,100.00
2022-12-26T05:02:16.829Z,100.00
2022-12-26T05:03:19.864Z,100.00
2022-12-26T05:04:22.940Z,100.00
2022-12-26T05:05:25.987Z,100.00
2022-12-26T05:06:28.767Z,100.00
2022-12-26T05:07:31.332Z,100.00
2022-12-26T05:08:34.197Z,100.00
2022-12-26T05:09:37.189Z,100.00
2022-12-26T05:10:40.160Z,100.00
2022-12-26T05:11:42.958Z,100.00
2022-12-26T05:12:45.808Z,100.00
2022-12-26T05:13:48.565Z,100.00
2022-12-26T05:14:51.436Z,100.00
2022-12-26T05:15:54.505Z,100.00
2022-12-26T05:16:57.605Z,100.00
2022-12-26T05:18:00.477Z,100.00
2022-12-26T05:19:03.456Z,100.00
2022-12-26T05:20:06.335Z,100.00
2022-12-26T05:21:09.125Z,100.00
2022-12-26T05:22:15.441Z,100.00
2022-12-26T05:23:18.229Z,100.00
2022-12-26T05:24:21.198Z,100.00
2022-12-26T05:25:24.286Z,100.00
2022-12-26T05:26:27.273Z,100.00
2022-12-26T05:27:30.857Z,100.00
2022-12-26T05:28:33.849Z,100.00
2022-12-26T05:29:36.708Z,100.00
2022-12-26T05:30:39.493Z,100.00
2022-12-26T05:31:42.172Z,100.00
2022-12-26T05:32:45.431Z,100.00
2022-12-26T05:33:48.107Z,100.00
2022-12-26T05:34:50.888Z,100.00
2022-12-26T05:35:53.744Z,100.00
2022-12-26T05:36:56.680Z,100.00
2022-12-26T05:37:59.498Z,100.00
2022-12-26T05:39:02.475Z,100.00
2022-12-26T05:40:05.353Z,100.00
2022-12-26T05:41:07.924Z,100.00
2022-12-26T05:42:10.593Z,100.00
2022-12-26T05:43:13.567Z,100.00
2022-12-26T05:44:16.137Z,100.00
2022-12-26T05:45:18.709Z,100.00
2022-12-26T05:46:21.561Z,100.00
2022-12-26T05:47:24.379Z,100.00
2022-12-26T05:48:27.136Z,100.00
2022-12-26T05:49:29.835Z,100.00
2022-12-26T05:50:32.674Z,100.00
2022-12-26T05:51:35.330Z,100.00
2022-12-26T05:52:38.125Z,100.00
2022-12-26T05:53:41.099Z,100.00
2022-12-26T05:54:43.876Z,100.00
2022-12-26T05:55:46.557Z,100.00
2022-12-26T05:56:49.777Z,100.00
2022-12-26T05:57:52.708Z,100.00
2022-12-26T05:58:55.805Z,100.00
2022-12-26T05:59:58.845Z,100.00
2022-12-26T06:01:01.755Z,100.00
2022-12-26T06:02:05.176Z,100.00
2022-12-26T06:03:08.571Z,100.00
2022-12-26T06:04:11.570Z,100.00
2022-12-26T06:05:14.237Z,100.00
2022-12-26T06:06:17.247Z,100.00
2022-12-26T06:07:20.099Z,100.00
2022-12-26T06:08:23.184Z,100.00
2022-12-26T06:09:26.369Z,100.00
2022-12-26T06:10:29.332Z,100.00
2022-12-26T06:11:32.320Z,100.00
2022-12-26T06:12:35.312Z,100.00
2022-12-26T06:13:38.481Z,100.00
2022-12-26T06:14:41.347Z,100.00
2022-12-26T06:15:44.111Z,100.00
2022-12-26T06:16:47.218Z,100.00
2022-12-26T06:17:49.961Z,100.00
2022-12-26T06:18:52.753Z,100.00
2022-12-26T06:19:55.417Z,100.00
2022-12-26T06:20:58.076Z,100.00
2022-12-26T06:22:01.056Z,100.00
2022-12-26T06:23:03.929Z,100.00
2022-12-26T06:24:06.612Z,100.00
2022-12-26T06:25:09.784Z,100.00
2022-12-26T06:26:12.507Z,100.00
2022-12-26T06:27:15.218Z,100.00
2022-12-26T06:28:18.192Z,100.00
2022-12-26T06:29:26.373Z,100.00
2022-12-26T06:30:29.407Z,100.00
2022-12-26T06:31:32.105Z,100.00
2022-12-26T06:32:34.711Z,100.00
2022-12-26T06:33:37.383Z,100.00
2022-12-26T06:34:40.050Z,100.00
2022-12-26T06:35:42.719Z,100.00
2022-12-26T06:36:45.492Z,100.00
2022-12-26T06:37:48.174Z,100.00
2022-12-26T06:38:50.726Z,100.00
2022-12-26T06:39:53.608Z,100.00
2022-12-26T06:40:56.287Z,100.00
2022-12-26T06:41:58.947Z,100.00
2022-12-26T06:43:01.609Z,100.00
2022-12-26T06:44:04.494Z,100.00
2022-12-26T06:45:07.262Z,100.00
2022-12-26T06:46:10.153Z,100.00
2022-12-26T06:47:12.842Z,100.00
2022-12-26T06:48:15.578Z,100.00
2022-12-26T06:49:18.251Z,100.00
2022-12-26T06:50:20.833Z,100.00
2022-12-26T06:51:23.494Z,100.00
2022-12-26T06:52:26.163Z,100.00
2022-12-26T06:53:28.740Z,100.00
2022-12-26T06:54:31.394Z,100.00
2022-12-26T06:55:34.171Z,100.00
2022-12-26T06:56:36.837Z,100.00
2022-12-26T06:57:39.636Z,100.00
2022-12-26T06:58:42.376Z,100.00
2022-12-26T06:59:45.454Z,100.00
2022-12-26T07:00:48.410Z,100.00
2022-12-26T07:01:51.830Z,100.00
2022-12-26T07:02:55.200Z,100.00
2022-12-26T07:03:58.107Z,100.00
2022-12-26T07:05:00.956Z,100.00
2022-12-26T07:06:03.932Z,100.00
2022-12-26T07:07:07.216Z,100.00
2022-12-26T07:08:09.997Z,100.00
2022-12-26T07:09:12.763Z,100.00
2022-12-26T07:10:15.590Z,100.00
2022-12-26T07:11:18.517Z,100.00
2022-12-26T07:12:21.729Z,100.00
2022-12-26T07:13:24.672Z,100.00
2022-12-26T07:14:27.445Z,100.00
2022-12-26T07:15:30.127Z,100.00
2022-12-26T07:16:32.759Z,100.00
2022-12-26T07:17:35.894Z,100.00
2022-12-26T07:18:38.563Z,100.00
2022-12-26T07:19:41.406Z,100.00
2022-12-26T07:20:44.187Z,100.00
2022-12-26T07:21:47.051Z,100.00
2022-12-26T07:22:50.239Z,100.00
2022-12-26T07:23:53.004Z,100.00
2022-12-26T07:24:55.729Z,100.00
2022-12-26T07:25:58.344Z,100.00
2022-12-26T07:27:01.435Z,100.00
2022-12-26T07:28:05.834Z,100.00
2022-12-26T07:29:08.443Z,100.00
2022-12-26T07:30:11.172Z,100.00
2022-12-26T07:31:14.249Z,100.00
2022-12-26T07:32:16.925Z,100.00
2022-12-26T07:33:20.011Z,100.00
2022-12-26T07:34:27.856Z,100.00
2022-12-26T07:35:26.994Z,100.00
2022-12-26T07:36:29.558Z,100.00
2022-12-26T07:37:32.221Z,100.00
2022-12-26T07:38:35.212Z,100.00
2022-12-26T07:39:37.778Z,100.00
2022-12-26T07:40:40.438Z,100.00
2022-12-26T07:41:43.267Z,100.00
2022-12-26T07:42:45.980Z,100.00
2022-12-26T07:43:48.965Z,100.00
2022-12-26T07:44:51.632Z,100.00
2022-12-26T07:45:54.457Z,100.00
2022-12-26T07:46:57.099Z,100.00
2022-12-26T07:47:59.950Z,100.00
2022-12-26T07:49:02.821Z,100.00
2022-12-26T07:50:05.639Z,100.00
2022-12-26T07:51:08.160Z,100.00
2022-12-26T07:52:10.725Z,100.00
2022-12-26T07:53:13.581Z,100.00
2022-12-26T07:54:16.391Z,100.00
2022-12-26T07:55:19.051Z,100.00
2022-12-26T07:56:21.986Z,100.00
2022-12-26T07:58:29.020Z,100.00
2022-12-26T07:59:31.977Z,100.00
2022-12-26T08:00:34.557Z,100.00
2022-12-26T08:01:37.225Z,100.00
2022-12-26T08:02:40.431Z,100.00
2022-12-26T08:03:44.355Z,100.00
2022-12-26T08:04:47.268Z,100.00
2022-12-26T08:05:50.356Z,100.00
2022-12-26T08:06:53.336Z,100.00
2022-12-26T08:07:56.256Z,100.00
2022-12-26T08:08:59.381Z,100.00
2022-12-26T08:10:02.562Z,100.00
2022-12-26T08:11:05.145Z,100.00
2022-12-26T08:12:08.120Z,100.00
2022-12-26T08:13:11.210Z,100.00
2022-12-26T08:14:13.889Z,100.00
2022-12-26T08:15:16.975Z,100.00
2022-12-26T08:16:19.798Z,100.00
2022-12-26T08:17:22.511Z,100.00
2022-12-26T08:18:25.272Z,100.00
2022-12-26T08:19:27.835Z,100.00
2022-12-26T08:20:30.608Z,100.00
2022-12-26T08:21:33.166Z,100.00
2022-12-26T08:22:35.778Z,100.00
2022-12-26T08:23:38.611Z,100.00
2022-12-26T08:24:41.284Z,100.00
2022-12-26T08:25:44.362Z,100.00
2022-12-26T08:26:46.961Z,100.00
2022-12-26T08:27:49.594Z,100.00
2022-12-26T08:28:52.386Z,100.00
2022-12-26T08:29:55.039Z,100.00
2022-12-26T08:30:58.118Z,100.00
2022-12-26T08:32:00.711Z,100.00
2022-12-26T08:33:03.470Z,100.00
2022-12-26T08:34:06.130Z,100.00
2022-12-26T08:35:09.038Z,100.00
2022-12-26T08:36:12.084Z,100.00
2022-12-26T08:37:14.741Z,100.00
2022-12-26T08:38:17.644Z,100.00
2022-12-26T08:39:20.492Z,100.00
2022-12-26T08:40:42.111Z,100.00
2022-12-26T08:41:27.573Z,100.00
2022-12-26T08:42:30.238Z,100.00
2022-12-26T08:44:40.092Z,100.00
2022-12-26T08:45:42.897Z,100.00
2022-12-26T08:46:45.832Z,100.00
2022-12-26T08:47:48.501Z,100.00
2022-12-26T08:48:51.179Z,100.00
2022-12-26T08:49:53.949Z,100.00
2022-12-26T08:50:56.676Z,100.00
2022-12-26T08:51:59.653Z,100.00
2022-12-26T08:53:02.388Z,100.00
2022-12-26T08:54:05.048Z,100.00
2022-12-26T08:55:07.601Z,100.00
2022-12-26T08:56:10.275Z,100.00
2022-12-26T08:57:13.050Z,100.00
2022-12-26T08:58:15.766Z,100.00
2022-12-26T08:59:18.288Z,100.00
2022-12-26T09:00:21.066Z,100.00
2022-12-26T09:01:23.797Z,100.00
2022-12-26T09:02:27.060Z,100.00
2022-12-26T09:03:30.259Z,100.00
2022-12-26T09:04:32.868Z,100.00
2022-12-26T09:05:35.589Z,100.00
2022-12-26T09:06:38.205Z,100.00
2022-12-26T09:07:41.296Z,100.00
2022-12-26T09:08:43.848Z,100.00
2022-12-26T09:09:46.416Z,100.00
2022-12-26T09:10:48.978Z,100.00
2022-12-26T09:11:51.855Z,100.00
2022-12-26T09:12:54.732Z,100.00
2022-12-26T09:13:57.406Z,100.00
2022-12-26T09:15:00.422Z,100.00
2022-12-26T09:16:03.148Z,100.00
2022-12-26T09:17:06.140Z,100.00
2022-12-26T09:18:09.217Z,100.00
2022-12-26T09:19:11.885Z,100.00
2022-12-26T09:20:14.668Z,100.00
2022-12-26T09:21:17.490Z,100.00
2022-12-26T09:22:20.316Z,100.00
2022-12-26T09:23:23.603Z,100.00
2022-12-26T09:24:26.453Z,100.00
2022-12-26T09:25:29.353Z,100.00
2022-12-26T09:26:32.051Z,100.00
2022-12-26T09:27:34.816Z,100.00
2022-12-26T09:28:37.468Z,100.00
2022-12-26T09:29:40.528Z,100.00
2022-12-26T09:30:44.222Z,100.00
2022-12-26T09:31:46.937Z,100.00
2022-12-26T09:32:49.456Z,100.00
2022-12-26T09:33:52.357Z,100.00
2022-12-26T09:34:55.056Z,100.00
2022-12-26T09:36:03.140Z,100.00
2022-12-26T09:37:02.190Z,100.00
2022-12-26T09:38:04.756Z,100.00
2022-12-26T09:39:07.550Z,100.00
2022-12-26T09:40:10.300Z,100.00
2022-12-26T09:41:13.067Z,100.00
2022-12-26T09:42:15.733Z,100.00
2022-12-26T09:43:18.549Z,100.00
2022-12-26T09:44:21.297Z,100.00
2022-12-26T09:45:24.054Z,100.00
2022-12-26T09:46:26.905Z,100.00
2022-12-26T09:47:29.498Z,100.00
2022-12-26T09:48:32.334Z,100.00
2022-12-26T09:49:35.255Z,100.00
2022-12-26T09:50:48.657Z,100.00
2022-12-26T09:51:51.471Z,100.00
2022-12-26T09:52:54.357Z,100.00
2022-12-26T09:53:57.314Z,100.00
2022-12-26T09:55:00.379Z,100.00
2022-12-26T09:56:03.141Z,100.00
2022-12-26T09:57:09.902Z,100.00
2022-12-26T09:58:10.245Z,100.00
2022-12-26T09:59:12.987Z,100.00
2022-12-26T10:00:15.878Z,100.00
2022-12-26T10:01:18.566Z,100.00
2022-12-26T10:02:21.366Z,100.00
2022-12-26T10:03:24.126Z,100.00
2022-12-26T10:04:29.856Z,100.00
2022-12-26T10:05:31.164Z,100.00
2022-12-26T10:06:33.987Z,100.00
2022-12-26T10:07:36.599Z,100.00
2022-12-26T10:08:39.372Z,100.00
2022-12-26T10:09:41.857Z,100.00
2022-12-26T10:10:44.612Z,100.00
2022-12-26T10:11:47.295Z,100.00
2022-12-26T10:12:50.085Z,100.00
2022-12-26T10:13:52.824Z,100.00
2022-12-26T10:14:55.398Z,100.00
2022-12-26T10:15:59.589Z,100.00
2022-12-26T10:17:02.170Z,100.00
2022-12-26T10:18:04.854Z,100.00
2022-12-26T10:19:07.617Z,100.00
2022-12-26T10:20:10.183Z,100.00
2022-12-26T10:21:13.163Z,100.00
2022-12-26T10:22:15.960Z,100.00
2022-12-26T10:23:18.622Z,100.00
2022-12-26T10:24:21.344Z,100.00
2022-12-26T10:25:27.532Z,100.00
2022-12-26T10:26:28.447Z,100.00
2022-12-26T10:27:31.122Z,100.00
2022-12-26T10:28:33.592Z,100.00
2022-12-26T10:29:36.050Z,100.00
2022-12-26T10:30:38.725Z,100.00
2022-12-26T10:31:41.598Z,100.00
2022-12-26T10:32:44.364Z,100.00
2022-12-26T10:33:47.049Z,100.00
2022-12-26T10:34:49.609Z,100.00
2022-12-26T10:35:52.173Z,100.00
2022-12-26T10:36:55.150Z,100.00
2022-12-26T10:37:57.713Z,100.00
2022-12-26T10:39:00.485Z,100.00
2022-12-26T10:40:03.161Z,100.00
2022-12-26T10:41:05.727Z,100.00
2022-12-26T10:42:08.703Z,100.00
2022-12-26T10:43:11.374Z,100.00
2022-12-26T10:44:13.948Z,100.00
2022-12-26T10:45:16.642Z,100.00
2022-12-26T10:46:19.619Z,100.00
2022-12-26T10:47:22.535Z,100.00
2022-12-26T10:48:25.238Z,100.00
2022-12-26T10:49:27.911Z,100.00
2022-12-26T10:50:30.473Z,100.00
2022-12-26T10:51:33.082Z,100.00
2022-12-26T10:52:35.910Z,100.00
2022-12-26T10:53:38.578Z,100.00
2022-12-26T10:54:41.359Z,100.00
2022-12-26T10:55:43.923Z,100.00
2022-12-26T10:56:46.791Z,100.00
2022-12-26T10:57:53.458Z,100.00
2022-12-26T10:58:56.124Z,100.00
2022-12-26T10:59:59.179Z,100.00
2022-12-26T11:01:01.883Z,100.00
2022-12-26T11:02:07.080Z,100.00
2022-12-26T11:03:08.888Z,100.00
2022-12-26T11:04:11.727Z,100.00
2022-12-26T11:05:40.229Z,100.00
2022-12-26T11:06:18.804Z,100.00
2022-12-26T11:07:21.474Z,100.00
2022-12-26T11:08:24.271Z,100.00
2022-12-26T11:09:26.915Z,100.00
2022-12-26T11:10:29.595Z,100.00
2022-12-26T11:11:32.396Z,100.00
2022-12-26T11:12:35.036Z,100.00
2022-12-26T11:13:37.921Z,100.00
2022-12-26T11:14:40.574Z,100.00
2022-12-26T11:15:44.172Z,100.00
2022-12-26T11:16:46.755Z,100.00
2022-12-26T11:17:49.523Z,100.00
2022-12-26T11:18:52.327Z,100.00
2022-12-26T11:19:55.174Z,100.00
2022-12-26T11:20:57.844Z,100.00
2022-12-26T11:22:00.400Z,100.00
2022-12-26T11:23:04.008Z,100.00
2022-12-26T11:24:06.770Z,100.00
2022-12-26T11:25:09.549Z,100.00
2022-12-26T11:26:12.156Z,100.00
2022-12-26T11:27:14.901Z,100.00
2022-12-26T11:28:17.566Z,100.00
2022-12-26T11:29:20.483Z,100.00
2022-12-26T11:30:23.094Z,99.51
2022-12-26T11:31:25.842Z,99.06
2022-12-26T11:32:28.476Z,98.95
2022-12-26T11:33:31.108Z,99.11
2022-12-26T11:34:33.675Z,98.74
2022-12-26T11:35:36.354Z,98.64
2022-12-26T11:36:39.028Z,98.44
2022-12-26T11:37:41.815Z,98.41
2022-12-26T11:38:45.375Z,98.21
2022-12-26T11:39:48.354Z,98.28
2022-12-26T11:40:50.921Z,97.96
2022-12-26T11:41:53.550Z,97.90
2022-12-26T11:42:56.157Z,97.92
2022-12-26T11:43:59.138Z,98.03
2022-12-26T11:45:01.899Z,97.59
2022-12-26T11:46:04.839Z,97.45
2022-12-26T11:47:07.450Z,97.44
2022-12-26T11:48:10.014Z,97.62
2022-12-26T11:49:12.782Z,97.37
2022-12-26T11:50:15.493Z,97.21
2022-12-26T11:51:18.117Z,97.34
2022-12-26T11:52:21.006Z,97.33
2022-12-26T11:53:23.899Z,97.42
2022-12-26T11:54:26.757Z,97.44
2022-12-26T11:55:29.754Z,97.07
2022-12-26T11:56:32.181Z,96.61
2022-12-26T11:57:35.163Z,96.57
2022-12-26T11:58:37.942Z,96.39
2022-12-26T11:59:40.947Z,96.03
2022-12-26T12:00:44.304Z,95.88
2022-12-26T12:01:47.317Z,95.85
2022-12-26T12:02:50.308Z,95.74
2022-12-26T12:03:53.268Z,95.38
2022-12-26T12:04:57.634Z,95.07
2022-12-26T12:06:00.631Z,95.02
2022-12-26T12:07:03.396Z,94.54
2022-12-26T12:08:06.195Z,94.29
2022-12-26T12:09:08.855Z,94.36
2022-12-26T12:10:11.494Z,94.14
2022-12-26T12:11:14.476Z,93.96
2022-12-26T12:12:17.040Z,93.93
2022-12-26T12:13:19.607Z,93.96
2022-12-26T12:14:22.275Z,93.74
2022-12-26T12:15:24.964Z,93.58
2022-12-26T12:16:28.002Z,93.31
2022-12-26T12:17:30.704Z,93.26
2022-12-26T12:18:33.413Z,93.71
2022-12-26T12:19:35.936Z,93.06
2022-12-26T12:20:38.612Z,92.99
2022-12-26T12:21:41.275Z,92.71
2022-12-26T12:22:44.044Z,92.57
2022-12-26T12:23:46.761Z,92.55
2022-12-26T12:24:49.456Z,92.38
2022-12-26T12:25:52.080Z,92.48
2022-12-26T12:26:58.828Z,92.27
2022-12-26T12:27:58.831Z,92.24
2022-12-26T12:29:01.400Z,92.19
2022-12-26T12:30:03.970Z,92.11
2022-12-26T12:31:06.853Z,92.14
2022-12-26T12:32:09.821Z,92.21
2022-12-26T12:33:12.571Z,92.00
2022-12-26T12:34:15.370Z,91.83
2022-12-26T12:35:18.343Z,91.98
2022-12-26T12:36:21.119Z,91.88
2022-12-26T12:37:24.195Z,91.55
2022-12-26T12:38:26.971Z,91.61
2022-12-26T12:39:29.849Z,91.32
2022-12-26T12:40:32.632Z,91.31
2022-12-26T12:41:35.511Z,91.16
2022-12-26T12:42:38.513Z,90.99
2022-12-26T12:43:41.358Z,91.18
2022-12-26T12:44:44.415Z,90.77
2022-12-26T12:45:47.492Z,90.61
2022-12-26T12:46:50.282Z,90.53
2022-12-26T12:47:53.506Z,90.40
2022-12-26T12:48:56.421Z,90.15
2022-12-26T12:49:59.196Z,90.17
2022-12-26T12:51:02.077Z,90.17
2022-12-26T12:52:05.277Z,90.07
2022-12-26T12:53:08.237Z,90.04
2022-12-26T12:54:11.107Z,90.02
2022-12-26T12:55:13.884Z,90.05
2022-12-26T12:56:16.759Z,89.87
2022-12-26T12:57:19.639Z,89.91
2022-12-26T12:58:22.605Z,89.90
2022-12-26T12:59:25.274Z,90.00
2022-12-26T13:00:28.151Z,90.02
2022-12-26T13:01:31.214Z,89.88
2022-12-26T13:02:34.209Z,89.94
2022-12-26T13:03:37.300Z,89.70
2022-12-26T13:04:40.059Z,89.59
2022-12-26T13:05:42.835Z,89.42
2022-12-26T13:06:46.009Z,89.30
2022-12-26T13:07:48.600Z,89.26
2022-12-26T13:08:51.474Z,88.61
2022-12-26T13:09:54.041Z,88.53
2022-12-26T13:10:56.597Z,88.46